createdAt,value
2018-11-01T00:00:04.128Z,7
2018-11-01T00:05:06.554Z,6
2018-11-01T00:10:09.049Z,7
2018-11-01T00:15:11.403Z,6
2018-11-01T00:20:13.857Z,7
2018-11-01T00:25:16.300Z,5
2018-11-01T00:30:18.729Z,7
2018-11-01T00:35:21.180Z,5
2018-11-01T00:40:23.696Z,7
2018-11-01T00:45:26.052Z,5
2018-11-01T00:50:28.501Z,5
2018-11-01T00:55:30.958Z,5
2018-11-01T01:00:33.384Z,6
2018-11-01T01:05:35.830Z,7
2018-11-01T01:10:38.275Z,7
2018-11-01T01:15:40.724Z,8
2018-11-01T01:20:43.166Z,8
2018-11-01T01:25:45.716Z,9
2018-11-01T01:30:48.056Z,8
2018-11-01T01:35:50.511Z,10
2018-11-01T01:40:52.965Z,12
2018-11-01T01:45:55.397Z,11
2018-11-01T01:50:57.829Z,10
2018-11-01T01:56:00.291Z,10
2018-11-01T02:01:02.737Z,10
2018-11-01T02:06:05.188Z,11
2018-11-01T02:11:07.655Z,9
2018-11-01T02:16:10.058Z,10
2018-11-01T02:21:12.529Z,10
2018-11-01T02:26:14.959Z,13
2018-11-01T02:31:17.405Z,14
2018-11-01T02:36:19.853Z,11
2018-11-01T02:41:22.351Z,10
2018-11-01T02:46:24.733Z,10
2018-11-01T02:51:27.186Z,10
2018-11-01T03:01:32.109Z,11
2018-11-01T03:26:44.380Z,15
2018-11-01T03:31:46.814Z,15
2018-11-01T03:36:49.172Z,15
2018-11-01T03:41:51.600Z,13
2018-11-01T03:46:54.235Z,11
2018-11-01T03:51:56.680Z,11
2018-11-01T03:56:58.932Z,12
2018-11-01T04:02:01.387Z,14
2018-11-01T04:07:03.872Z,12
2018-11-01T04:12:06.285Z,13
2018-11-01T04:17:08.913Z,12
2018-11-01T04:22:11.239Z,16
2018-11-01T04:27:13.626Z,16
2018-11-01T04:32:16.101Z,16
2018-11-01T04:37:18.582Z,17
2018-11-01T04:42:20.979Z,17
2018-11-01T04:47:23.501Z,17
2018-11-01T04:52:25.844Z,16
2018-11-01T04:57:28.277Z,14
2018-11-01T05:02:30.737Z,13
2018-11-01T05:07:33.182Z,14
2018-11-01T05:12:35.650Z,15
2018-11-01T05:17:38.084Z,15
2018-11-01T05:22:40.559Z,15
2018-11-01T05:27:43.023Z,12
2018-11-01T05:32:45.415Z,13
2018-11-01T05:37:47.909Z,13
2018-11-01T05:42:50.373Z,12
2018-11-01T05:47:52.776Z,13
2018-11-01T05:52:55.185Z,13
2018-11-01T05:57:57.635Z,12
2018-11-01T06:03:00.101Z,12
2018-11-01T06:08:02.547Z,12
2018-11-01T06:13:04.967Z,10
2018-11-01T06:18:07.457Z,10
2018-11-01T06:23:09.870Z,10
2018-11-01T06:28:12.302Z,11
2018-11-01T06:33:14.750Z,10
2018-11-01T06:38:17.224Z,10
2018-11-01T06:43:19.641Z,10
2018-11-01T06:48:22.113Z,8
2018-11-01T06:53:24.543Z,9
2018-11-01T06:58:27.080Z,8
2018-11-01T07:03:29.428Z,7
2018-11-01T07:08:31.871Z,7
2018-11-01T07:13:34.308Z,8
2018-11-01T07:18:36.744Z,7
2018-11-01T07:23:39.397Z,8
2018-11-01T07:28:41.620Z,7
2018-11-01T07:38:46.503Z,7
2018-11-01T07:43:48.935Z,7
2018-11-01T07:48:51.379Z,6
2018-11-01T07:53:53.903Z,7
2018-11-01T07:58:56.264Z,6
2018-11-01T08:03:58.831Z,6
2018-11-01T08:09:01.135Z,6
2018-11-01T08:14:03.578Z,6
2018-11-01T08:19:06.018Z,7
2018-11-01T08:24:08.453Z,7
2018-11-01T08:29:10.904Z,7
2018-11-01T08:34:13.354Z,6
2018-11-01T08:39:15.932Z,6
2018-11-01T08:44:18.263Z,6
2018-11-01T08:49:20.701Z,5
2018-11-01T08:54:23.114Z,6
2018-11-01T08:59:25.551Z,6
2018-11-01T09:04:28.010Z,6
2018-11-01T09:09:30.477Z,6
2018-11-01T09:14:32.942Z,6
2018-11-01T09:19:35.371Z,7
2018-11-01T09:24:37.773Z,6
2018-11-01T09:29:40.228Z,7
2018-11-01T09:34:42.649Z,6
2018-11-01T09:39:45.069Z,7
2018-11-01T09:44:47.519Z,7
2018-11-01T09:49:49.955Z,6
2018-11-01T09:54:52.394Z,6
2018-11-01T09:59:54.870Z,6
2018-11-01T10:04:57.285Z,5
2018-11-01T10:09:59.735Z,5
2018-11-01T10:15:02.216Z,5
2018-11-01T10:20:04.604Z,5
2018-11-01T10:25:07.097Z,5
2018-11-01T10:30:09.483Z,4
2018-11-01T10:35:11.944Z,4
2018-11-01T10:40:14.373Z,4
2018-11-01T10:45:16.802Z,4
2018-11-01T10:50:19.244Z,4
2018-11-01T10:55:21.682Z,4
2018-11-01T11:00:24.178Z,4
2018-11-01T11:05:26.601Z,4
2018-11-01T11:10:29.007Z,5
2018-11-01T11:15:31.450Z,5
2018-11-01T11:20:34.261Z,5
2018-11-01T11:25:36.322Z,4
2018-11-01T11:30:38.956Z,4
2018-11-01T11:35:41.251Z,3
2018-11-01T11:40:43.669Z,4
2018-11-01T11:45:46.085Z,3
2018-11-01T11:50:48.540Z,4
2018-11-01T11:55:50.972Z,4
2018-11-01T12:00:53.419Z,3
2018-11-01T12:05:55.902Z,3
2018-11-01T12:10:58.283Z,3
2018-11-01T12:16:00.723Z,3
2018-11-01T12:21:03.175Z,2
2018-11-01T12:26:05.601Z,2
2018-11-01T12:31:08.047Z,2
2018-11-01T12:36:10.601Z,2
2018-11-01T12:41:12.921Z,2
2018-11-01T12:46:15.372Z,2
2018-11-01T12:51:17.810Z,2
2018-11-01T12:56:20.363Z,2
2018-11-01T13:01:22.696Z,2
2018-11-01T13:06:25.125Z,2
2018-11-01T13:11:27.588Z,2
2018-11-01T13:16:30.018Z,2
2018-11-01T13:21:32.493Z,2
2018-11-01T13:26:34.895Z,3
2018-11-01T13:31:37.327Z,4
2018-11-01T13:36:39.770Z,3
2018-11-01T13:41:42.299Z,4
2018-11-01T13:46:44.820Z,5
2018-11-01T13:51:47.192Z,5
2018-11-01T13:56:49.532Z,5
2018-11-01T14:01:51.972Z,5
2018-11-01T14:06:54.425Z,5
2018-11-01T14:11:56.862Z,5
2018-11-01T14:16:59.360Z,5
2018-11-01T14:22:01.749Z,4
2018-11-01T14:27:04.190Z,5
2018-11-01T14:32:06.617Z,4
2018-11-01T14:37:09.099Z,4
2018-11-01T14:42:11.544Z,4
2018-11-01T14:47:13.962Z,4
2018-11-01T14:52:17.009Z,4
2018-11-01T14:57:20.538Z,4
2018-11-01T15:02:21.267Z,4
2018-11-01T15:07:23.772Z,4
2018-11-01T15:12:26.144Z,3
2018-11-01T15:17:28.589Z,3
2018-11-01T15:22:31.040Z,3
2018-11-01T15:27:33.486Z,3
2018-11-01T15:37:38.487Z,4
2018-11-01T15:42:40.854Z,5
2018-11-01T15:47:43.223Z,4
2018-11-01T15:52:45.688Z,4
2018-11-01T15:57:48.132Z,4
2018-11-01T16:02:50.565Z,6
2018-11-01T16:07:52.992Z,5
2018-11-01T16:12:55.441Z,4
2018-11-01T16:17:57.866Z,4
2018-11-01T16:23:00.334Z,5
2018-11-01T16:28:02.781Z,4
2018-11-01T16:33:05.245Z,4
2018-11-01T16:38:07.693Z,4
2018-11-01T16:43:10.120Z,4
2018-11-01T16:48:12.538Z,4
2018-11-01T16:53:15.005Z,3
2018-11-01T16:58:17.427Z,4
2018-11-01T17:03:19.855Z,4
2018-11-01T17:08:22.302Z,3
2018-11-01T17:13:24.760Z,3
2018-11-01T17:18:27.174Z,3
2018-11-01T17:23:29.631Z,3
2018-11-01T17:28:32.062Z,3
2018-11-01T17:33:34.511Z,4
2018-11-01T17:38:36.941Z,3
2018-11-01T17:43:39.437Z,3
2018-11-01T17:48:41.820Z,3
2018-11-01T17:53:44.278Z,4
2018-11-01T17:58:46.710Z,3
2018-11-01T18:03:49.158Z,3
2018-11-01T18:08:51.732Z,3
2018-11-01T18:13:54.033Z,2
2018-11-01T18:18:56.462Z,2
2018-11-01T18:23:58.907Z,2
2018-11-01T18:29:01.577Z,2
2018-11-01T18:34:03.803Z,2
2018-11-01T18:39:06.341Z,2
2018-11-01T18:44:08.691Z,2
2018-11-01T18:49:11.102Z,3
2018-11-01T18:54:13.696Z,2
2018-11-01T18:59:15.984Z,2
2018-11-01T19:04:18.537Z,2
2018-11-01T19:09:20.887Z,2
2018-11-01T19:14:23.579Z,2
2018-11-01T19:19:25.846Z,2
2018-11-01T19:24:28.211Z,2
2018-11-01T19:29:30.630Z,1
2018-11-01T19:34:33.405Z,2
2018-11-01T19:39:35.522Z,2
2018-11-01T19:44:37.940Z,2
2018-11-01T19:49:40.556Z,2
2018-11-01T19:54:42.921Z,2
2018-11-01T19:59:45.293Z,2
2018-11-01T20:04:47.713Z,2
2018-11-01T20:09:50.169Z,2
2018-11-01T20:14:52.754Z,2
2018-11-01T20:19:55.029Z,2
2018-11-01T20:24:57.472Z,2
2018-11-01T20:29:59.909Z,2
2018-11-01T20:35:02.472Z,2
2018-11-01T20:40:04.792Z,2
2018-11-01T20:45:07.254Z,2
2018-11-01T20:50:09.702Z,2
2018-11-01T20:55:12.136Z,2
2018-11-01T21:00:14.555Z,2
2018-11-01T21:05:16.997Z,2
2018-11-01T21:10:19.443Z,2
2018-11-01T21:15:21.884Z,2
2018-11-01T21:20:24.315Z,2
2018-11-01T21:25:26.820Z,2
2018-11-01T21:30:29.196Z,2
2018-11-01T21:35:31.919Z,3
2018-11-01T21:40:34.187Z,3
2018-11-01T21:45:36.505Z,3
2018-11-01T21:50:38.941Z,2
2018-11-01T21:55:41.401Z,1
2018-11-01T22:00:43.824Z,1
2018-11-01T22:05:46.275Z,1
2018-11-01T22:10:48.716Z,0
2018-11-01T22:15:51.148Z,0
2018-11-01T22:20:53.613Z,1
2018-11-01T22:25:56.091Z,1
2018-11-01T22:30:58.503Z,1
2018-11-01T22:36:00.943Z,1
2018-11-01T22:41:03.357Z,1
2018-11-01T22:46:05.793Z,1
2018-11-01T22:51:08.227Z,1
2018-11-01T22:56:10.685Z,1
2018-11-01T23:01:13.153Z,0
2018-11-01T23:06:15.596Z,0
2018-11-01T23:11:18.020Z,0
2018-11-01T23:16:20.472Z,0
2018-11-01T23:21:22.867Z,0
2018-11-01T23:26:25.383Z,0
2018-11-01T23:31:27.849Z,0
2018-11-01T23:36:30.319Z,0
2018-11-01T23:41:32.680Z,1
2018-11-01T23:46:35.067Z,0
2018-11-01T23:51:37.567Z,0
2018-11-01T23:56:39.955Z,0
